createdAt,value
2023-05-04T00:00:21.767Z,62.59
2023-05-04T00:05:40.765Z,62.88
2023-05-04T00:10:40.182Z,63.22
2023-05-04T00:15:40.084Z,63.53
2023-05-04T00:20:39.925Z,63.75
2023-05-04T00:25:39.611Z,63.87
2023-05-04T00:30:39.191Z,64.08
2023-05-04T00:35:38.093Z,64.50
2023-05-04T00:40:37.069Z,64.71
2023-05-04T00:45:36.374Z,64.93
2023-05-04T00:50:36.004Z,65.07
2023-05-04T00:55:35.493Z,65.10
2023-05-04T01:00:34.603Z,65.24
2023-05-04T01:05:40.166Z,65.31
2023-05-04T01:10:51.060Z,65.40
2023-05-04T01:15:51.622Z,65.55
2023-05-04T01:20:50.858Z,65.45
2023-05-04T01:26:03.748Z,65.50
2023-05-04T01:31:07.104Z,65.50
2023-05-04T01:36:07.399Z,65.64
2023-05-04T01:41:08.602Z,66.02
2023-05-04T01:46:07.600Z,66.15
2023-05-04T01:51:07.821Z,66.23
2023-05-04T01:56:07.055Z,66.56
2023-05-04T02:01:06.543Z,66.89
2023-05-04T02:06:05.416Z,67.16
2023-05-04T02:11:04.611Z,67.23
2023-05-04T02:16:03.556Z,67.38
2023-05-04T02:21:02.387Z,67.55
2023-05-04T02:26:02.742Z,67.74
2023-05-04T02:31:02.000Z,67.82
2023-05-04T02:36:01.039Z,68.00
2023-05-04T02:41:00.063Z,68.11
2023-05-04T02:45:59.271Z,68.20
2023-05-04T02:50:59.450Z,68.31
2023-05-04T02:55:58.522Z,68.35
2023-05-04T03:01:00.373Z,68.59
2023-05-04T03:05:59.885Z,68.70
2023-05-04T03:10:59.044Z,68.92
2023-05-04T03:15:58.452Z,69.18
2023-05-04T03:20:57.967Z,69.35
2023-05-04T03:25:57.216Z,69.50
2023-05-04T03:30:57.551Z,69.68
2023-05-04T03:35:56.945Z,69.91
2023-05-04T03:40:56.481Z,70.06
2023-05-04T03:45:55.600Z,70.21
2023-05-04T03:50:56.134Z,70.39
2023-05-04T03:55:55.379Z,70.43
2023-05-04T04:00:54.919Z,70.54
2023-05-04T04:05:54.750Z,70.52
2023-05-04T04:10:53.464Z,70.60
2023-05-04T04:15:52.816Z,70.57
2023-05-04T04:20:52.229Z,70.55
2023-05-04T04:25:51.429Z,70.47
2023-05-04T04:30:50.791Z,70.38
2023-05-04T04:35:49.799Z,70.33
2023-05-04T04:40:48.220Z,70.29
2023-05-04T04:45:47.066Z,70.28
2023-05-04T04:50:48.607Z,70.28
2023-05-04T04:55:47.921Z,70.07
2023-05-04T05:00:47.800Z,69.90
2023-05-04T05:05:47.999Z,69.65
2023-05-04T05:10:47.444Z,69.44
2023-05-04T05:15:46.386Z,69.20
2023-05-04T05:20:45.813Z,68.68
2023-05-04T05:25:45.240Z,68.31
2023-05-04T05:30:45.795Z,67.40
2023-05-04T05:35:45.788Z,66.66
2023-05-04T05:40:44.812Z,65.78
2023-05-04T05:45:44.032Z,64.94
2023-05-04T05:50:43.387Z,64.22
2023-05-04T05:55:43.181Z,63.17
2023-05-04T06:00:42.049Z,62.03
2023-05-04T06:05:41.585Z,60.91
2023-05-04T06:10:40.535Z,59.60
2023-05-04T06:15:39.500Z,58.30
2023-05-04T06:20:39.069Z,57.51
2023-05-04T06:25:37.908Z,56.03
2023-05-04T06:30:36.727Z,54.61
2023-05-04T06:35:35.579Z,52.99
2023-05-04T06:40:34.693Z,51.63
2023-05-04T06:45:37.118Z,50.27
2023-05-04T06:50:37.359Z,49.60
2023-05-04T06:55:37.274Z,48.98
2023-05-04T07:00:37.102Z,48.03
2023-05-04T07:05:39.234Z,46.71
2023-05-04T07:10:38.131Z,46.06
2023-05-04T07:15:37.080Z,45.70
2023-05-04T07:20:35.768Z,43.98
2023-05-04T07:25:35.973Z,43.87
2023-05-04T07:30:34.637Z,43.11
2023-05-04T07:35:33.618Z,41.87
2023-05-04T07:40:33.063Z,41.42
2023-05-04T07:45:31.996Z,40.96
2023-05-04T07:50:30.380Z,40.19
2023-05-04T07:55:30.924Z,39.61
2023-05-04T08:00:31.092Z,39.06
2023-05-04T08:05:30.217Z,37.20
2023-05-04T08:10:29.185Z,35.61
2023-05-04T08:15:28.575Z,34.36
2023-05-04T08:20:28.747Z,34.04
2023-05-04T08:25:28.196Z,32.61
2023-05-04T08:30:29.092Z,32.82
2023-05-04T08:35:30.208Z,33.94
2023-05-04T08:40:29.637Z,34.01
2023-05-04T08:45:30.396Z,33.69
2023-05-04T08:50:29.624Z,32.88
2023-05-04T08:55:29.275Z,33.06
2023-05-04T09:00:29.697Z,32.81
2023-05-04T09:05:29.730Z,33.76
2023-05-04T09:10:29.786Z,33.67
2023-05-04T09:15:29.518Z,33.81
2023-05-04T09:20:31.005Z,32.19
2023-05-04T09:25:31.713Z,30.43
2023-05-04T09:30:32.426Z,30.11
2023-05-04T09:35:35.519Z,29.65
2023-05-04T09:40:43.611Z,29.66
2023-05-04T09:45:50.558Z,30.42
2023-05-04T09:51:03.041Z,28.91
2023-05-04T09:56:14.547Z,28.60
2023-05-04T10:01:14.676Z,28.37
2023-05-04T10:06:16.426Z,27.70
2023-05-04T10:11:20.257Z,27.81
2023-05-04T10:16:34.733Z,27.32
2023-05-04T10:21:51.670Z,27.75
2023-05-04T10:27:03.565Z,27.39
2023-05-04T10:32:03.401Z,27.55
2023-05-04T10:37:04.206Z,28.74
2023-05-04T10:42:06.789Z,29.19
2023-05-04T10:47:08.540Z,28.99
2023-05-04T10:52:18.133Z,29.18
2023-05-04T10:57:18.714Z,28.17
2023-05-04T11:02:29.325Z,26.00
2023-05-04T11:07:40.982Z,26.31
2023-05-04T11:12:44.023Z,24.84
2023-05-04T11:17:54.475Z,24.89
2023-05-04T11:22:55.505Z,24.79
2023-05-04T11:27:55.725Z,24.60
2023-05-04T11:32:57.787Z,24.82
2023-05-04T11:37:57.804Z,24.83
2023-05-04T11:42:59.640Z,25.53
2023-05-04T11:47:59.678Z,24.97
2023-05-04T11:53:12.811Z,24.20
2023-05-04T11:58:15.031Z,24.32
2023-05-04T12:03:17.204Z,23.54
2023-05-04T12:08:29.897Z,23.84
2023-05-04T12:13:29.379Z,24.83
2023-05-04T12:18:36.383Z,24.32
2023-05-04T12:23:36.807Z,23.00
2023-05-04T12:28:40.100Z,21.38
2023-05-04T12:33:42.326Z,22.12
2023-05-04T12:38:42.877Z,21.33
2023-05-04T12:43:43.225Z,21.69
2023-05-04T12:48:43.288Z,21.17
2023-05-04T12:53:46.392Z,19.78
2023-05-04T12:58:51.703Z,19.58
2023-05-04T13:03:56.718Z,18.47
2023-05-04T13:08:57.276Z,17.92
2023-05-04T13:14:00.813Z,17.66
2023-05-04T13:19:02.262Z,17.90
2023-05-04T13:24:06.455Z,17.46
2023-05-04T13:29:06.304Z,17.89
2023-05-04T13:34:11.697Z,17.77
2023-05-04T13:39:15.899Z,16.91
2023-05-04T13:44:17.857Z,17.24
2023-05-04T13:49:27.005Z,17.48
2023-05-04T13:54:32.416Z,16.47
2023-05-04T14:04:54.870Z,16.53
2023-05-04T14:10:04.585Z,16.11
2023-05-04T14:15:05.134Z,16.78
2023-05-04T14:20:07.347Z,16.52
2023-05-04T14:25:07.430Z,16.88
2023-05-04T14:30:13.220Z,16.11
2023-05-04T14:35:18.242Z,15.84
2023-05-04T14:40:20.332Z,15.85
2023-05-04T14:45:24.791Z,15.73
2023-05-04T14:50:26.324Z,15.41
2023-05-04T14:55:27.204Z,16.17
2023-05-04T15:00:27.453Z,17.25
2023-05-04T15:05:29.628Z,17.67
2023-05-04T15:10:34.833Z,17.87
2023-05-04T15:16:09.183Z,17.80
2023-05-04T15:21:17.110Z,17.66
2023-05-04T15:26:18.734Z,17.67
2023-05-04T15:31:18.738Z,17.31
2023-05-04T15:36:18.367Z,17.46
2023-05-04T15:41:18.218Z,17.62
2023-05-04T15:46:17.337Z,17.07
2023-05-04T15:51:17.482Z,17.14
2023-05-04T15:56:18.336Z,16.72
2023-05-04T16:01:17.708Z,16.81
2023-05-04T16:06:17.997Z,16.93
2023-05-04T16:11:17.483Z,16.25
2023-05-04T16:16:16.466Z,15.81
2023-05-04T16:21:16.548Z,15.59
2023-05-04T16:26:16.021Z,15.32
2023-05-04T16:31:16.400Z,15.13
2023-05-04T16:36:16.715Z,14.65
2023-05-04T16:41:15.971Z,14.42
2023-05-04T16:46:15.668Z,14.56
2023-05-04T16:51:15.198Z,14.60
2023-05-04T16:56:21.551Z,14.52
2023-05-04T17:01:21.358Z,14.77
2023-05-04T17:06:20.049Z,15.15
2023-05-04T17:11:22.085Z,15.46
2023-05-04T17:16:21.781Z,16.10
2023-05-04T17:21:21.888Z,17.08
2023-05-04T17:26:21.794Z,18.03
2023-05-04T17:31:21.057Z,19.05
2023-05-04T17:36:21.105Z,19.98
2023-05-04T17:41:20.336Z,21.03
2023-05-04T17:46:20.352Z,22.06
2023-05-04T17:51:20.829Z,22.86
2023-05-04T17:56:21.357Z,23.60
2023-05-04T18:01:20.882Z,24.39
2023-05-04T18:06:20.353Z,25.20
2023-05-04T18:11:19.681Z,25.79
2023-05-04T18:16:18.801Z,26.48
2023-05-04T18:21:18.483Z,27.45
2023-05-04T18:26:23.989Z,28.48
2023-05-04T18:31:24.163Z,28.95
2023-05-04T18:36:23.761Z,29.89
2023-05-04T18:41:25.386Z,30.64
2023-05-04T18:46:25.120Z,31.08
2023-05-04T18:51:24.684Z,31.90
2023-05-04T18:56:54.401Z,32.39
2023-05-04T19:02:32.157Z,32.88
2023-05-04T19:07:56.684Z,33.33
2023-05-04T19:13:01.479Z,33.88
2023-05-04T19:18:01.223Z,34.24
2023-05-04T19:23:00.851Z,34.55
2023-05-04T19:28:01.626Z,34.90
2023-05-04T19:33:00.706Z,35.21
2023-05-04T19:38:01.725Z,35.88
2023-05-04T19:43:04.144Z,36.58
2023-05-04T19:48:04.954Z,37.31
2023-05-04T19:53:04.334Z,37.72
2023-05-04T19:58:03.776Z,38.16
2023-05-04T20:03:03.550Z,38.67
2023-05-04T20:08:05.147Z,38.94
2023-05-04T20:13:06.347Z,39.51
2023-05-04T20:18:07.431Z,40.05
2023-05-04T20:23:08.306Z,40.06
2023-05-04T20:28:09.220Z,40.49
2023-05-04T20:33:10.001Z,40.55
2023-05-04T20:38:10.759Z,40.76
2023-05-04T20:43:11.731Z,40.95
2023-05-04T20:48:11.637Z,41.57
2023-05-04T20:53:12.602Z,41.99
2023-05-04T20:58:12.649Z,42.08
2023-05-04T21:03:12.296Z,42.66
2023-05-04T21:08:12.665Z,42.97
2023-05-04T21:13:11.989Z,43.23
2023-05-04T21:18:11.862Z,43.65
2023-05-04T21:23:11.462Z,43.84
2023-05-04T21:28:11.418Z,43.97
2023-05-04T21:33:10.909Z,44.49
2023-05-04T21:38:13.121Z,44.95
2023-05-04T21:43:19.165Z,45.17
2023-05-04T21:48:17.872Z,45.44
2023-05-04T21:53:17.560Z,45.78
2023-05-04T21:58:18.048Z,45.99
2023-05-04T22:03:17.354Z,46.27
2023-05-04T22:08:16.906Z,46.40
2023-05-04T22:13:16.347Z,46.79
2023-05-04T22:18:16.003Z,46.87
2023-05-04T22:23:14.933Z,46.90
2023-05-04T22:28:13.868Z,47.06
2023-05-04T22:33:13.134Z,47.55
2023-05-04T22:38:12.265Z,47.81
2023-05-04T22:43:11.148Z,47.98
2023-05-04T22:48:10.805Z,48.06
2023-05-04T22:53:10.920Z,48.15
2023-05-04T22:58:11.353Z,48.29
2023-05-04T23:03:10.651Z,48.37
2023-05-04T23:08:09.995Z,48.44
2023-05-04T23:13:10.868Z,48.53
2023-05-04T23:18:10.385Z,48.74
2023-05-04T23:23:09.929Z,48.99
2023-05-04T23:28:10.025Z,49.17
2023-05-04T23:33:08.776Z,49.40
2023-05-04T23:38:08.046Z,49.68
2023-05-04T23:43:07.421Z,49.86
2023-05-04T23:48:06.989Z,50.03
2023-05-04T23:53:06.410Z,50.19
2023-05-04T23:58:05.731Z,50.45
